Time;durP1;ratioP1;P1;durP2;ratioP2;P2;SDS_P1;SDS_P2;PMS_P1;PMS_P2;Temp;Humidity;BMP_temperature;BMP_pressure;BME280_temperature;BME280_humidity;BME280_pressure;Samples;Min_cycle;Max_cycle;Signal;HPM_P1;HPM_P2
2021/06/03 00:00:27;;;;;;;;;;;;;;;18.03;48.14;99939.91;5111371;28;19947;-37
2021/06/03 00:02:52;;;;;;;;;;;;;;;18.05;48.36;99943.16;5111304;28;19912;-38
2021/06/03 00:05:23;;;;;;;;;;;;;;;17.96;48.53;99945.47;5111055;28;20291;-38
2021/06/03 00:07:49;;;;;;;;;;;;;;;17.89;48.22;99945.63;5111217;28;19911;-38
2021/06/03 00:10:14;;;;;;;;;;;;;;;17.64;48.35;99932.56;5111414;28;19923;-38
2021/06/03 00:12:39;;;;;;;;;;;;;;;17.55;48.94;99942.94;5111536;28;20448;-38
2021/06/03 00:15:06;;;;;;;;;;;;;;;17.64;49.11;99937.16;5111279;28;20042;-37
2021/06/03 00:17:31;;;;;;;;;;;;;;;17.56;48.91;99951.84;5110866;28;19931;-37
2021/06/03 00:19:57;;;;;;;;;;;;;;;17.42;48.85;99940.59;5111178;28;19912;-36
2021/06/03 00:22:22;;;;;;;;;;;;;;;17.74;48.36;99937.28;5110713;28;19934;-37
2021/06/03 00:24:47;;;;;;;;;;;;;;;17.67;48.88;99937.47;5110995;28;19965;-37
2021/06/03 00:27:13;;;;;;;;;;;;;;;17.87;48.78;99939.69;5110852;28;19926;-38
2021/06/03 00:29:38;;;;;;;;;;;;;;;17.92;48.23;99929.00;5110675;28;19916;-37
2021/06/03 00:32:07;;;;;;;;;;;;;;;17.69;48.89;99934.53;5110684;28;19923;-37
2021/06/03 00:34:32;;;;;;;;;;;;;;;17.29;49.54;99939.00;5109626;28;20296;-37
2021/06/03 00:36:57;;;;;;;;;;;;;;;17.17;50.04;99933.72;5110572;28;19912;-37
2021/06/03 00:39:23;;;;;;;;;;;;;;;16.95;50.61;99932.75;5110859;28;19934;-37
2021/06/03 00:41:48;;;;;;;;;;;;;;;17.09;49.85;99936.78;5110783;28;19916;-38
2021/06/03 00:44:13;;;;;;;;;;;;;;;16.98;50.33;99932.25;5110832;28;19912;-38
2021/06/03 00:46:38;;;;;;;;;;;;;;;16.98;51.22;99937.63;5110699;28;19912;-38
2021/06/03 00:49:04;;;;;;;;;;;;;;;16.80;50.86;99928.69;5110515;28;19977;-38
2021/06/03 00:51:29;;;;;;;;;;;;;;;16.91;50.37;99928.94;5110970;28;19912;-38
2021/06/03 00:53:55;;;;;;;;;;;;;;;16.59;50.99;99935.53;5110645;28;20359;-37
2021/06/03 00:56:20;;;;;;;;;;;;;;;16.63;51.68;99935.88;5110731;28;19988;-37
2021/06/03 00:58:45;;;;;;;;;;;;;;;16.82;51.49;99936.56;5110740;28;19916;-38
2021/06/03 01:01:11;;;;;;;;;;;;;;;17.10;50.54;99934.91;5109304;28;19915;-37
2021/06/03 01:03:36;;;;;;;;;;;;;;;17.42;49.53;99934.38;5110567;28;19954;-37
2021/06/03 01:06:05;;;;;;;;;;;;;;;17.02;51.43;99936.13;5109119;28;20018;-37
2021/06/03 01:08:35;;;;;;;;;;;;;;;16.77;52.01;99936.41;5110575;28;20045;-38
2021/06/03 01:11:13;;;;;;;;;;;;;;;16.86;51.53;99928.81;5113219;28;20043;-38
2021/06/03 01:13:39;;;;;;;;;;;;;;;16.37;52.21;99938.06;5114841;28;19982;-38
2021/06/03 01:16:04;;;;;;;;;;;;;;;16.56;51.84;99941.41;5107205;28;20460;-37
2021/06/03 01:18:31;;;;;;;;;;;;;;;16.53;51.68;99941.88;5092533;28;20154;-38
2021/06/03 01:20:56;;;;;;;;;;;;;;;16.74;51.68;99944.97;5092831;28;19916;-37
2021/06/03 01:23:21;;;;;;;;;;;;;;;16.46;52.09;99940.38;5093701;28;19949;-37
2021/06/03 01:25:46;;;;;;;;;;;;;;;16.33;52.16;99938.75;5094082;28;20299;-37
2021/06/03 01:28:12;;;;;;;;;;;;;;;16.53;51.69;99935.69;5092360;28;19942;-38
2021/06/03 01:30:47;;;;;;;;;;;;;;;16.48;51.82;99933.69;5093666;28;19994;-38
2021/06/03 01:33:14;;;;;;;;;;;;;;;16.33;52.08;99944.94;5092540;28;20398;-38
2021/06/03 01:35:40;;;;;;;;;;;;;;;16.49;51.43;99948.78;5093718;28;19912;-38
2021/06/03 01:38:06;;;;;;;;;;;;;;;16.48;51.65;99949.81;5093586;28;19916;-38
2021/06/03 01:40:32;;;;;;;;;;;;;;;16.78;50.35;99951.50;5093481;28;20387;-36
2021/06/03 01:42:57;;;;;;;;;;;;;;;16.93;50.07;99964.44;5093502;28;19962;-37
2021/06/03 01:45:23;;;;;;;;;;;;;;;16.64;50.61;99960.88;5092101;28;19995;-37
2021/06/03 01:47:48;;;;;;;;;;;;;;;16.51;50.06;99962.78;5091938;28;20402;-37
2021/06/03 01:50:13;;;;;;;;;;;;;;;16.54;50.00;99959.59;5093143;28;19966;-37
2021/06/03 01:52:39;;;;;;;;;;;;;;;16.42;50.74;99953.47;5093322;28;20237;-37
2021/06/03 01:55:05;;;;;;;;;;;;;;;16.64;50.69;99955.50;5093483;28;19984;-37
2021/06/03 01:57:30;;;;;;;;;;;;;;;16.66;50.33;99962.28;5093413;28;19915;-38
2021/06/03 01:59:55;;;;;;;;;;;;;;;16.56;50.71;99960.22;5091980;28;20013;-38
2021/06/03 02:02:21;;;;;;;;;;;;;;;16.68;51.43;99962.84;5093055;28;19912;-37
2021/06/03 02:04:46;;;;;;;;;;;;;;;16.71;50.07;99967.75;5093201;28;20453;-38
2021/06/03 02:07:12;;;;;;;;;;;;;;;16.34;50.40;99951.97;5093257;28;19912;-36
2021/06/03 02:09:37;;;;;;;;;;;;;;;16.53;50.38;99954.50;5092691;28;19959;-38
2021/06/03 02:12:03;;;;;;;;;;;;;;;16.41;50.25;99949.13;5092470;28;19916;-37
2021/06/03 02:14:30;;;;;;;;;;;;;;;16.05;51.03;99945.69;5093021;28;20380;-37
2021/06/03 02:16:55;;;;;;;;;;;;;;;16.24;50.19;99959.81;5091357;28;19924;-37
2021/06/03 02:19:22;;;;;;;;;;;;;;;16.24;50.35;99959.81;5092676;28;19966;-37
2021/06/03 02:21:48;;;;;;;;;;;;;;;16.40;49.13;99950.19;5090518;28;20384;-38
2021/06/03 02:24:13;;;;;;;;;;;;;;;16.71;48.98;99957.00;5092494;28;19970;-37
2021/06/03 02:26:39;;;;;;;;;;;;;;;16.58;48.74;99952.72;5091333;28;20054;-37
2021/06/03 02:29:04;;;;;;;;;;;;;;;16.71;48.62;99957.00;5092686;28;19924;-37
2021/06/03 02:31:30;;;;;;;;;;;;;;;16.79;48.03;99951.25;5091705;28;19968;-37
2021/06/03 02:33:55;;;;;;;;;;;;;;;16.75;48.90;99951.97;5091314;28;20293;-37
2021/06/03 02:36:21;;;;;;;;;;;;;;;16.40;49.65;99951.00;5091959;28;19935;-37
2021/06/03 02:38:46;;;;;;;;;;;;;;;16.34;49.20;99948.47;5090998;28;19923;-38
2021/06/03 02:41:12;;;;;;;;;;;;;;;16.50;49.53;99949.59;5092108;28;19912;-37
2021/06/03 02:43:40;;;;;;;;;;;;;;;16.23;49.97;99958.97;5090487;28;19971;-38
2021/06/03 02:46:06;;;;;;;;;;;;;;;16.41;49.17;99951.81;5090564;28;20376;-37
2021/06/03 02:48:31;;;;;;;;;;;;;;;16.00;50.80;99945.56;5091969;28;19927;-37
2021/06/03 02:50:56;;;;;;;;;;;;;;;16.10;50.65;99948.47;5092134;28;19919;-38
2021/06/03 02:53:22;;;;;;;;;;;;;;;15.79;51.00;99953.16;5092026;28;19919;-48
2021/06/03 02:55:47;;;;;;;;;;;;;;;15.91;50.93;99961.19;5091541;28;19978;-51
2021/06/03 02:58:12;;;;;;;;;;;;;;;16.20;50.61;99958.63;5091853;28;19912;-37
2021/06/03 03:00:38;;;;;;;;;;;;;;;16.13;50.33;99953.38;5091502;28;20317;-52
2021/06/03 03:03:04;;;;;;;;;;;;;;;16.42;49.83;99956.94;5091259;28;19912;-38
2021/06/03 03:05:29;;;;;;;;;;;;;;;16.31;49.97;99956.97;5091201;28;19955;-38
2021/06/03 03:07:54;;;;;;;;;;;;;;;15.93;50.23;99955.59;5091004;28;20010;-38
2021/06/03 03:10:21;;;;;;;;;;;;;;;16.05;50.00;99959.13;5089862;28;19960;-38
2021/06/03 03:12:46;;;;;;;;;;;;;;;16.30;49.47;99961.53;5090903;28;19916;-38
2021/06/03 03:15:12;;;;;;;;;;;;;;;16.09;50.61;99960.28;5090657;28;20439;-39
2021/06/03 03:17:37;;;;;;;;;;;;;;;16.19;49.27;99968.56;5090339;28;19921;-38
2021/06/03 03:20:03;;;;;;;;;;;;;;;16.29;49.33;99964.47;5090683;28;19943;-38
2021/06/03 03:22:28;;;;;;;;;;;;;;;16.29;49.41;99967.13;5090266;28;19965;-38
2021/06/03 03:24:54;;;;;;;;;;;;;;;16.59;48.29;99977.72;5090751;28;19951;-38
2021/06/03 03:27:19;;;;;;;;;;;;;;;16.42;50.02;99969.56;5090550;28;19916;-38
2021/06/03 03:29:44;;;;;;;;;;;;;;;16.63;49.61;99976.19;5090724;28;19920;-38
2021/06/03 03:32:09;;;;;;;;;;;;;;;16.41;48.95;99965.25;5090381;28;19912;-38
2021/06/03 03:34:35;;;;;;;;;;;;;;;16.35;49.52;99966.19;5090062;28;19912;-38
2021/06/03 03:37:00;;;;;;;;;;;;;;;16.52;48.80;99968.97;5089563;28;19931;-38
2021/06/03 03:39:25;;;;;;;;;;;;;;;16.84;48.09;99969.38;5090074;28;19977;-38
2021/06/03 03:41:51;;;;;;;;;;;;;;;16.90;47.43;99968.41;5090413;28;19969;-37
2021/06/03 03:44:16;;;;;;;;;;;;;;;16.84;47.80;99972.06;5089926;28;20068;-38
2021/06/03 03:46:41;;;;;;;;;;;;;;;17.09;55.22;99978.97;5088953;28;20376;-37
2021/06/03 03:49:06;;;;;;;;;;;;;;;17.24;46.96;99973.06;5088852;28;19923;-37
2021/06/03 03:51:32;;;;;;;;;;;;;;;17.30;46.12;99969.41;5089277;28;20301;-38
2021/06/03 03:53:57;;;;;;;;;;;;;;;16.96;47.11;99972.00;5089047;28;19998;-38
2021/06/03 03:56:22;;;;;;;;;;;;;;;16.74;48.24;99979.91;5088756;28;20295;-37
2021/06/03 03:58:49;;;;;;;;;;;;;;;17.29;46.31;99987.44;5087891;28;19998;-37
2021/06/03 04:01:14;;;;;;;;;;;;;;;17.70;45.74;99990.78;5089169;28;19977;-38
2021/06/03 04:03:39;;;;;;;;;;;;;;;17.88;45.13;99999.75;5090214;28;20387;-38
2021/06/03 04:06:05;;;;;;;;;;;;;;;18.09;44.26;99998.16;5089863;28;19935;-38
2021/06/03 04:08:30;;;;;;;;;;;;;;;18.22;44.10;100000.53;5090047;28;19994;-37
2021/06/03 04:10:55;;;;;;;;;;;;;;;17.71;44.71;100002.41;5090325;28;19912;-38
2021/06/03 04:13:21;;;;;;;;;;;;;;;17.61;45.18;100010.28;5089857;28;20286;-38
2021/06/03 04:15:46;;;;;;;;;;;;;;;17.76;44.50;100005.16;5089272;28;20028;-39
2021/06/03 04:18:11;;;;;;;;;;;;;;;18.03;43.82;100009.91;5089576;28;19919;-38
2021/06/03 04:20:37;;;;;;;;;;;;;;;18.06;43.50;100006.72;5089731;28;20011;-38
2021/06/03 04:23:02;;;;;;;;;;;;;;;18.28;43.17;100014.88;5102327;28;19985;-37
2021/06/03 04:25:27;;;;;;;;;;;;;;;18.58;42.80;100024.41;5109739;28;20311;-39
2021/06/03 04:27:53;;;;;;;;;;;;;;;19.45;41.48;100015.47;5109384;28;19951;-37
2021/06/03 04:30:19;;;;;;;;;;;;;;;19.35;40.98;100009.97;5109357;28;19915;-38
2021/06/03 04:32:44;;;;;;;;;;;;;;;19.62;40.46;100012.66;5109367;28;20003;-38
2021/06/03 04:35:10;;;;;;;;;;;;;;;19.29;41.45;100024.50;5109355;28;20432;-38
2021/06/03 04:37:35;;;;;;;;;;;;;;;19.53;40.84;100031.22;5109394;28;20307;-38
2021/06/03 04:40:00;;;;;;;;;;;;;;;19.99;39.75;100025.41;5108798;28;20066;-38
2021/06/03 04:42:26;;;;;;;;;;;;;;;19.97;39.91;100026.72;5109565;28;20089;-37
2021/06/03 04:44:51;;;;;;;;;;;;;;;20.18;39.71;100023.13;5112082;28;19998;-37
2021/06/03 04:47:16;;;;;;;;;;;;;;;20.56;38.99;100020.34;5113830;28;19912;-37
2021/06/03 04:49:41;;;;;;;;;;;;;;;20.84;38.67;100024.53;5113516;28;19955;-37
2021/06/03 04:52:26;;;;;;;;;;;;;;;21.66;37.36;100024.75;5113773;28;19911;-37
2021/06/03 04:54:54;;;;;;;;;;;;;;;21.95;36.76;100032.34;5113501;28;19922;-37
2021/06/03 04:57:19;;;;;;;;;;;;;;;21.60;37.18;100025.84;5113473;28;19954;-38
2021/06/03 04:59:44;;;;;;;;;;;;;;;22.08;36.42;100004.69;5113122;28;19951;-38
2021/06/03 05:02:10;;;;;;;;;;;;;;;21.78;37.24;100028.03;5089224;28;19938;-38
2021/06/03 05:04:35;;;;;;;;;;;;;;;21.44;37.78;100028.53;5075188;28;19916;-37
2021/06/03 05:07:00;;;;;;;;;;;;;;;21.20;38.10;100021.97;5090374;28;19928;-39
2021/06/03 05:09:26;;;;;;;;;;;;;;;21.51;37.70;100025.53;5094393;28;19959;-38
2021/06/03 05:11:51;;;;;;;;;;;;;;;21.73;37.17;100030.72;5094057;28;19912;-38
2021/06/03 05:14:16;;;;;;;;;;;;;;;22.05;37.37;100030.44;5093845;28;19993;-39
2021/06/03 05:16:41;;;;;;;;;;;;;;;22.08;36.28;100039.91;5093599;28;19926;-39
2021/06/03 05:19:07;;;;;;;;;;;;;;;21.86;36.80;100037.50;5094037;28;20635;-40
2021/06/03 05:21:32;;;;;;;;;;;;;;;21.83;36.97;100027.19;5094716;28;19942;-39
2021/06/03 05:23:57;;;;;;;;;;;;;;;21.53;37.18;100036.13;5113803;28;20232;-39
2021/06/03 05:26:23;;;;;;;;;;;;;;;22.38;35.98;100049.91;5112973;28;20381;-38
2021/06/03 05:28:49;;;;;;;;;;;;;;;22.60;35.65;100055.03;5113771;28;19916;-37
2021/06/03 05:31:14;;;;;;;;;;;;;;;22.77;34.79;100049.28;5113910;28;19966;-38
2021/06/03 05:33:39;;;;;;;;;;;;;;;22.14;35.51;100057.81;5113856;27;19954;-38
2021/06/03 05:36:04;;;;;;;;;;;;;;;21.86;36.35;100056.47;5113663;28;19923;-38
2021/06/03 05:38:30;;;;;;;;;;;;;;;21.75;36.41;100060.25;5113647;28;19912;-38
2021/06/03 05:40:55;;;;;;;;;;;;;;;22.01;36.63;100066.50;5114074;28;20399;-39
2021/06/03 05:43:20;;;;;;;;;;;;;;;22.86;35.22;100060.34;5114144;28;19968;-38
2021/06/03 05:45:46;;;;;;;;;;;;;;;23.33;34.04;100075.38;5113645;28;20228;-38
2021/06/03 05:48:11;;;;;;;;;;;;;;;23.42;33.61;100076.41;5113526;28;20088;-38
2021/06/03 05:50:36;;;;;;;;;;;;;;;23.83;33.96;100066.38;5113342;28;19944;-38
2021/06/03 05:53:01;;;;;;;;;;;;;;;23.18;34.61;100083.59;5113653;27;20401;-39
2021/06/03 05:55:27;;;;;;;;;;;;;;;23.89;33.22;100073.38;5112840;28;19912;-38
2021/06/03 05:57:52;;;;;;;;;;;;;;;23.92;33.71;100079.06;5113758;28;19939;-38
2021/06/03 06:00:21;;;;;;;;;;;;;;;24.05;33.12;100080.31;5113355;28;20374;-38
2021/06/03 06:02:50;;;;;;;;;;;;;;;23.71;33.78;100072.94;5113669;28;19911;-38
2021/06/03 06:08:01;;;;;;;;;;;;;;;25.36;31.33;100069.38;5113498;28;19989;-38
2021/06/03 06:10:26;;;;;;;;;;;;;;;24.67;32.15;100074.31;5113445;28;19919;-40
2021/06/03 06:12:51;;;;;;;;;;;;;;;24.95;32.55;100073.41;5113483;28;20359;-40
2021/06/03 06:15:17;;;;;;;;;;;;;;;24.63;32.50;100075.97;5113012;28;20319;-38
2021/06/03 06:17:43;;;;;;;;;;;;;;;24.11;32.94;100067.50;5113411;28;20003;-39
2021/06/03 06:20:09;;;;;;;;;;;;;;;24.37;33.46;100076.22;5113523;28;19943;-38
2021/06/03 06:22:34;;;;;;;;;;;;;;;25.41;31.62;100074.75;5113008;28;19930;-38
2021/06/03 06:25:03;;;;;;;;;;;;;;;25.65;32.03;100080.13;5113149;28;19911;-37
2021/06/03 06:27:28;;;;;;;;;;;;;;;25.79;30.74;100074.72;5113401;28;19939;-37
2021/06/03 06:29:53;;;;;;;;;;;;;;;25.59;30.91;100073.13;5113247;28;20046;-38
2021/06/03 06:32:18;;;;;;;;;;;;;;;25.99;30.54;100084.53;5113261;28;19911;-38
2021/06/03 06:34:44;;;;;;;;;;;;;;;25.55;31.22;100089.25;5112749;27;19938;-38
2021/06/03 06:37:09;;;;;;;;;;;;;;;24.97;32.13;100090.25;5112757;28;20467;-38
2021/06/03 06:39:36;;;;;;;;;;;;;;;25.14;31.60;100097.94;5112749;28;19927;-38
2021/06/03 06:42:01;;;;;;;;;;;;;;;23.86;33.68;100085.63;5112829;28;19916;-38
2021/06/03 06:44:27;;;;;;;;;;;;;;;23.85;33.74;100088.63;5113022;28;19911;-38
2021/06/03 06:46:52;;;;;;;;;;;;;;;24.32;33.11;100079.00;5113022;28;19958;-38
2021/06/03 06:49:17;;;;;;;;;;;;;;;25.00;32.32;100088.88;5112671;27;19939;-37
2021/06/03 06:51:43;;;;;;;;;;;;;;;25.39;31.81;100078.88;5112907;28;19919;-37
2021/06/03 06:54:08;;;;;;;;;;;;;;;24.87;32.53;100092.31;5112610;28;19911;-38
2021/06/03 06:56:33;;;;;;;;;;;;;;;25.27;32.16;100082.03;5112618;28;19911;-38
2021/06/03 06:58:59;;;;;;;;;;;;;;;25.75;31.53;100085.41;5111985;28;19922;-39
2021/06/03 07:01:24;;;;;;;;;;;;;;;25.66;31.68;100084.44;5111390;28;19951;-38
2021/06/03 07:03:51;;;;;;;;;;;;;;;24.98;32.52;100082.94;5112164;28;20367;-38
2021/06/03 07:06:16;;;;;;;;;;;;;;;25.54;31.35;100084.09;5111910;28;19911;-38
2021/06/03 07:08:41;;;;;;;;;;;;;;;25.47;31.47;100078.19;5110940;28;19916;-38
2021/06/03 07:11:06;;;;;;;;;;;;;;;25.93;30.99;100082.97;5111875;28;20367;-38
2021/06/03 07:13:32;;;;;;;;;;;;;;;26.45;29.83;100085.63;5111841;28;19911;-39
2021/06/03 07:15:57;;;;;;;;;;;;;;;26.39;29.92;100082.19;5112143;28;19924;-38
2021/06/03 07:18:22;;;;;;;;;;;;;;;25.85;30.84;100080.91;5112300;28;19911;-39
2021/06/03 07:20:48;;;;;;;;;;;;;;;25.59;30.76;100084.03;5112433;28;19955;-39
2021/06/03 07:23:13;;;;;;;;;;;;;;;26.86;29.39;100093.03;5111863;28;19931;-38
2021/06/03 07:25:40;;;;;;;;;;;;;;;27.28;28.47;100083.72;5112092;28;19911;-39
2021/06/03 07:28:05;;;;;;;;;;;;;;;26.98;28.45;100087.91;5111934;28;19938;-38
2021/06/03 07:30:30;;;;;;;;;;;;;;;26.20;28.85;100084.16;5111871;28;19916;-38
2021/06/03 07:32:56;;;;;;;;;;;;;;;26.72;28.80;100090.31;5112072;28;19923;-38
2021/06/03 07:35:21;;;;;;;;;;;;;;;26.25;28.68;100081.34;5112296;28;19918;-38
2021/06/03 07:37:47;;;;;;;;;;;;;;;26.76;28.21;100082.34;5112110;28;19919;-39
2021/06/03 07:40:20;;;;;;;;;;;;;;;26.92;28.12;100084.47;5111970;28;19934;-39
2021/06/03 07:42:45;;;;;;;;;;;;;;;26.78;25.81;100085.56;5111826;28;19919;-39
2021/06/03 07:45:11;;;;;;;;;;;;;;;25.97;26.95;100081.28;5111835;28;19912;-38
2021/06/03 07:47:36;;;;;;;;;;;;;;;25.75;27.29;100079.94;5111872;28;19911;-39
2021/06/03 07:50:02;;;;;;;;;;;;;;;26.38;26.60;100086.00;5111687;28;19938;-39
2021/06/03 07:52:27;;;;;;;;;;;;;;;25.55;26.81;100077.53;5111419;28;19912;-39
2021/06/03 07:54:53;;;;;;;;;;;;;;;26.06;26.51;100089.56;5111507;28;20310;-39
2021/06/03 07:57:18;;;;;;;;;;;;;;;26.17;25.29;100085.56;5111686;28;19922;-39
2021/06/03 07:59:43;;;;;;;;;;;;;;;26.75;24.32;100080.72;5111554;28;19923;-39
2021/06/03 08:02:09;;;;;;;;;;;;;;;26.60;24.67;100081.81;5111401;28;19919;-39
2021/06/03 08:04:34;;;;;;;;;;;;;;;26.24;25.50;100091.44;5111509;28;19911;-39
2021/06/03 08:06:59;;;;;;;;;;;;;;;26.41;25.76;100088.16;5110958;28;20363;-39
2021/06/03 08:09:25;;;;;;;;;;;;;;;27.24;26.14;100087.34;5111543;28;20296;-38
2021/06/03 08:11:50;;;;;;;;;;;;;;;26.80;25.71;100099.72;5111183;28;19916;-39
2021/06/03 08:14:15;;;;;;;;;;;;;;;27.10;25.88;100099.09;5111299;28;20011;-39
2021/06/03 08:16:40;;;;;;;;;;;;;;;27.16;24.31;100085.34;5111289;28;19923;-38
2021/06/03 08:19:06;;;;;;;;;;;;;;;26.43;25.45;100091.38;5111080;28;19934;-39
2021/06/03 08:21:33;;;;;;;;;;;;;;;26.17;26.53;100101.94;5111420;28;19915;-39
2021/06/03 08:23:58;;;;;;;;;;;;;;;26.02;25.44;100091.28;5111341;28;19995;-38
2021/06/03 08:26:27;;;;;;;;;;;;;;;26.26;25.08;100107.53;5111083;28;19962;-38
2021/06/03 08:28:52;;;;;;;;;;;;;;;26.86;25.51;100096.56;5110976;28;20438;-37
2021/06/03 08:31:17;;;;;;;;;;;;;;;27.17;24.52;100103.31;5111252;28;20006;-39
2021/06/03 08:33:43;;;;;;;;;;;;;;;26.54;25.49;100086.56;5111274;28;19912;-39
2021/06/03 08:36:08;;;;;;;;;;;;;;;26.44;25.18;100101.16;5110993;28;20287;-38
2021/06/03 08:38:34;;;;;;;;;;;;;;;27.10;24.55;100109.22;5111251;28;19911;-39
2021/06/03 08:40:59;;;;;;;;;;;;;;;26.93;24.53;100101.66;5110885;28;20431;-39
2021/06/03 08:43:26;;;;;;;;;;;;;;;27.33;24.67;100110.13;5111012;28;19912;-38
2021/06/03 08:45:52;;;;;;;;;;;;;;;27.48;24.79;100098.03;5110653;28;19916;-39
2021/06/03 08:48:17;;;;;;;;;;;;;;;27.22;24.85;100100.50;5110504;28;19941;-38
2021/06/03 08:50:47;;;;;;;;;;;;;;;27.73;24.59;100093.91;5110292;28;19912;-38
2021/06/03 08:53:12;;;;;;;;;;;;;;;27.50;25.26;100093.88;5110749;28;20414;-37
2021/06/03 08:56:19;;;;;;;;;;;;;;;27.37;24.81;100105.66;5110856;28;19911;-38
2021/06/03 08:58:26;;;;;;;;;;;;;;;27.02;25.49;100091.63;5104941;28;20003;-38
2021/06/03 09:00:52;;;;;;;;;;;;;;;27.41;25.39;100106.66;5109187;28;19916;-39
2021/06/03 09:03:17;;;;;;;;;;;;;;;27.87;24.59;100099.31;5109245;28;19912;-38
2021/06/03 09:05:42;;;;;;;;;;;;;;;28.18;23.91;100090.38;5110128;28;19912;-38
2021/06/03 09:08:14;;;;;;;;;;;;;;;28.56;24.29;100093.50;5110097;28;19959;-38
2021/06/03 09:10:40;;;;;;;;;;;;;;;28.85;23.96;100095.69;5110079;28;19916;-39
2021/06/03 09:13:06;;;;;;;;;;;;;;;29.15;23.95;100085.00;5110375;28;19916;-39
2021/06/03 09:15:31;;;;;;;;;;;;;;;27.91;24.48;100097.59;5110331;28;20018;-39
2021/06/03 09:17:56;;;;;;;;;;;;;;;27.84;25.29;100097.22;5110416;28;19918;-38
2021/06/03 09:20:22;;;;;;;;;;;;;;;27.97;24.59;100096.38;5110354;28;19934;-37
2021/06/03 09:22:47;;;;;;;;;;;;;;;27.96;23.93;100094.75;5108795;28;20284;-39
2021/06/03 09:25:28;;;;;;;;;;;;;;;28.70;23.42;100095.31;5110183;28;20050;-39
2021/06/03 09:27:53;;;;;;;;;;;;;;;29.24;22.46;100094.06;5110182;28;20022;-39
2021/06/03 09:30:19;;;;;;;;;;;;;;;29.44;23.92;100100.03;5109673;28;19916;-37
2021/06/03 09:32:53;;;;;;;;;;;;;;;28.94;22.53;100090.25;5111896;28;20432;-38
2021/06/03 09:35:19;;;;;;;;;;;;;;;27.88;23.04;100087.25;5113603;28;19918;-39
2021/06/03 09:37:44;;;;;;;;;;;;;;;28.84;22.77;100093.25;5113091;28;19998;-39
2021/06/03 09:40:19;;;;;;;;;;;;;;;28.90;22.59;100089.28;5113651;28;20010;-38
2021/06/03 09:42:45;;;;;;;;;;;;;;;28.71;23.20;100085.97;5113356;28;20435;-38
2021/06/03 09:45:10;;;;;;;;;;;;;;;28.25;23.64;100086.09;5111727;28;19946;-38
2021/06/03 09:47:36;;;;;;;;;;;;;;;28.97;23.06;100089.59;5113369;28;19911;-38
2021/06/03 09:50:01;;;;;;;;;;;;;;;29.19;22.28;100096.13;5112768;28;19920;-38
2021/06/03 09:52:32;;;;;;;;;;;;;;;28.63;23.65;100091.09;5113127;28;19912;-39
2021/06/03 09:54:58;;;;;;;;;;;;;;;28.65;23.64;100096.25;5113179;28;19923;-38
2021/06/03 09:57:30;;;;;;;;;;;;;;;28.57;23.76;100095.09;5113488;28;19972;-38
2021/06/03 10:00:00;;;;;;;;;;;;;;;28.77;23.27;100096.47;5113335;28;19957;-39
2021/06/03 10:02:25;;;;;;;;;;;;;;;28.58;22.82;100083.03;5112968;28;19912;-39
2021/06/03 10:04:50;;;;;;;;;;;;;;;28.46;22.66;100083.63;5113196;28;19923;-39
2021/06/03 10:07:16;;;;;;;;;;;;;;;29.43;22.41;100077.31;5111836;28;20375;-38
2021/06/03 10:09:47;;;;;;;;;;;;;;;29.38;22.38;100084.88;5112863;28;19923;-38
2021/06/03 10:12:25;;;;;;;;;;;;;;;29.43;22.59;100076.47;5113047;28;19949;-38
2021/06/03 10:14:50;;;;;;;;;;;;;;;29.28;22.21;100052.28;5113084;28;19916;-38
2021/06/03 10:17:17;;;;;;;;;;;;;;;29.93;22.12;100062.28;5112586;28;20394;-38
2021/06/03 10:19:42;;;;;;;;;;;;;;;28.76;22.57;100075.69;5113032;28;19916;-39
2021/06/03 10:22:18;;;;;;;;;;;;;;;29.37;22.16;100069.53;5112870;28;20311;-40
2021/06/03 10:24:46;;;;;;;;;;;;;;;29.59;21.57;100061.16;5112830;28;20387;-38
2021/06/03 10:27:12;;;;;;;;;;;;;;;28.94;22.86;100067.50;5113032;28;19927;-38
2021/06/03 10:29:37;;;;;;;;;;;;;;;28.89;23.27;100063.00;5112560;28;19916;-39
2021/06/03 10:32:02;;;;;;;;;;;;;;;29.67;22.69;100066.97;5111623;28;20298;-39
2021/06/03 10:34:28;;;;;;;;;;;;;;;29.91;21.98;100061.81;5111291;28;20009;-38
2021/06/03 10:36:56;;;;;;;;;;;;;;;29.31;23.13;100062.63;5111364;28;19934;-40
2021/06/03 10:39:21;;;;;;;;;;;;;;;29.49;22.33;100063.41;5111507;28;19912;-39
2021/06/03 10:41:46;;;;;;;;;;;;;;;30.23;21.57;100059.59;5110834;28;19969;-39
2021/06/03 10:44:11;;;;;;;;;;;;;;;29.29;23.19;100067.63;5112525;28;19934;-39
2021/06/03 10:46:37;;;;;;;;;;;;;;;29.42;22.66;100072.13;5110836;28;19968;-39
2021/06/03 10:49:02;;;;;;;;;;;;;;;28.55;23.14;100067.25;5110989;28;20280;-39
2021/06/03 10:51:27;;;;;;;;;;;;;;;28.92;22.96;100053.34;5111391;28;19919;-39
2021/06/03 10:53:53;;;;;;;;;;;;;;;29.27;23.40;100062.44;5112470;28;19915;-39
2021/06/03 10:56:21;;;;;;;;;;;;;;;29.35;22.91;100067.13;5112341;28;20463;-38
2021/06/03 10:58:47;;;;;;;;;;;;;;;29.51;22.42;100061.97;5112432;28;20310;-39
2021/06/03 11:01:16;;;;;;;;;;;;;;;29.54;21.85;100050.34;5112743;28;19923;-39
2021/06/03 11:03:49;;;;;;;;;;;;;;;29.59;23.25;100060.38;5112485;28;20314;-39
2021/06/03 11:06:18;;;;;;;;;;;;;;;28.38;23.85;100070.69;5112139;28;19961;-39
2021/06/03 11:08:44;;;;;;;;;;;;;;;28.62;23.72;100075.00;5112222;28;19927;-39
2021/06/03 11:11:12;;;;;;;;;;;;;;;29.83;22.54;100073.59;5112126;28;19919;-39
2021/06/03 11:13:46;;;;;;;;;;;;;;;29.99;22.64;100071.94;5112482;28;19955;-39
2021/06/03 11:16:18;;;;;;;;;;;;;;;29.72;22.90;100075.84;5111807;28;19924;-39
2021/06/03 11:18:49;;;;;;;;;;;;;;;29.82;22.22;100063.75;5112098;28;20029;-39
2021/06/03 11:21:37;;;;;;;;;;;;;;;29.87;22.15;100060.81;5111879;28;19919;-39
2021/06/03 11:24:06;;;;;;;;;;;;;;;30.64;21.53;100062.88;5065140;28;20323;-39
2021/06/03 11:26:40;;;;;;;;;;;;;;;30.02;22.14;100065.00;5071672;28;19912;-39
2021/06/03 11:29:27;;;;;;;;;;;;;;;29.77;22.41;100061.97;5071703;28;19917;-39
2021/06/03 11:32:02;;;;;;;;;;;;;;;30.16;22.43;100060.13;5078434;28;19924;-39
2021/06/03 11:34:41;;;;;;;;;;;;;;;28.40;23.36;100052.00;5091631;28;20351;-38
2021/06/03 11:37:08;;;;;;;;;;;;;;;28.58;23.41;100055.66;5089942;28;19924;-38
2021/06/03 11:39:33;;;;;;;;;;;;;;;28.44;23.93;100066.72;5091629;28;19912;-38
2021/06/03 11:42:17;;;;;;;;;;;;;;;28.73;23.08;100059.09;5091195;28;19912;-38
2021/06/03 11:45:15;;;;;;;;;;;;;;;29.11;23.49;100058.53;5091090;28;19956;-38
2021/06/03 11:47:43;;;;;;;;;;;;;;;29.21;23.20;100053.59;5067557;28;19919;-39
2021/06/03 11:50:11;;;;;;;;;;;;;;;30.50;21.62;100047.44;5091152;28;19974;-38
2021/06/03 11:52:37;;;;;;;;;;;;;;;30.10;22.16;100044.97;5090569;28;20411;-39
2021/06/03 11:55:03;;;;;;;;;;;;;;;30.40;21.14;100036.81;5090122;28;19912;-38
2021/06/03 11:57:32;;;;;;;;;;;;;;;31.24;21.31;100033.44;5090929;28;20368;-40
2021/06/03 11:59:58;;;;;;;;;;;;;;;30.89;20.79;100025.41;5091176;28;19922;-39
2021/06/03 12:02:34;;;;;;;;;;;;;;;30.63;20.88;100031.84;5090895;28;20360;-38
2021/06/03 12:05:09;;;;;;;;;;;;;;;30.26;22.10;100027.97;5090940;28;19912;-38
2021/06/03 12:07:41;;;;;;;;;;;;;;;30.41;22.85;100035.69;5091045;28;19920;-39
2021/06/03 12:10:06;;;;;;;;;;;;;;;29.53;22.36;100026.81;5090832;28;20289;-38
2021/06/03 12:12:32;;;;;;;;;;;;;;;29.63;21.74;100025.69;5090855;28;20410;-38
2021/06/03 12:14:58;;;;;;;;;;;;;;;30.14;21.89;100021.25;5091052;28;20398;-38
2021/06/03 12:17:24;;;;;;;;;;;;;;;30.79;21.02;100018.38;5090455;28;20033;-38
2021/06/03 12:19:51;;;;;;;;;;;;;;;29.70;21.80;100011.47;5090707;28;19919;-38
2021/06/03 12:22:17;;;;;;;;;;;;;;;30.17;22.08;100026.06;5090563;28;19916;-38
2021/06/03 12:24:43;;;;;;;;;;;;;;;31.36;21.68;100034.31;5090561;28;19938;-39
2021/06/03 12:27:24;;;;;;;;;;;;;;;30.50;22.40;100020.00;5090375;28;20370;-39
2021/06/03 12:29:49;;;;;;;;;;;;;;;31.17;21.39;100026.53;5090425;28;19916;-39
2021/06/03 12:32:15;;;;;;;;;;;;;;;32.05;20.54;100034.03;5090015;28;20249;-39
2021/06/03 12:34:40;;;;;;;;;;;;;;;32.79;20.01;100031.31;5090590;28;19912;-38
2021/06/03 12:37:22;;;;;;;;;;;;;;;32.26;20.28;100022.91;5090546;28;20018;-38
2021/06/03 12:39:47;;;;;;;;;;;;;;;32.49;19.07;100029.56;5090416;28;20400;-39